sensor_id;sensor_type;location;lat;lon;timestamp;P1;durP1;ratioP1;P2;durP2;ratioP2
1258;SDS011;619;51.472;6.628;2023-05-16T00:01:09;3.60;;;2.40;;
1258;SDS011;619;51.472;6.628;2023-05-16T00:03:43;6.70;;;2.53;;
1258;SDS011;619;51.472;6.628;2023-05-16T00:06:12;4.20;;;2.60;;
1258;SDS011;619;51.472;6.628;2023-05-16T00:08:45;2.57;;;1.90;;
1258;SDS011;619;51.472;6.628;2023-05-16T00:11:17;6.10;;;2.63;;
1258;SDS011;619;51.472;6.628;2023-05-16T00:13:43;4.80;;;2.53;;
1258;SDS011;619;51.472;6.628;2023-05-16T00:16:10;5.70;;;2.73;;
1258;SDS011;619;51.472;6.628;2023-05-16T00:18:38;7.87;;;2.63;;
1258;SDS011;619;51.472;6.628;2023-05-16T00:21:09;9.73;;;2.60;;
1258;SDS011;619;51.472;6.628;2023-05-16T00:23:35;3.70;;;1.97;;
1258;SDS011;619;51.472;6.628;2023-05-16T00:26:02;9.13;;;2.93;;
1258;SDS011;619;51.472;6.628;2023-05-16T00:28:30;6.53;;;2.90;;
1258;SDS011;619;51.472;6.628;2023-05-16T00:30:58;7.37;;;2.37;;
1258;SDS011;619;51.472;6.628;2023-05-16T00:33:24;4.40;;;2.27;;
1258;SDS011;619;51.472;6.628;2023-05-16T00:35:52;5.67;;;2.93;;
1258;SDS011;619;51.472;6.628;2023-05-16T00:38:20;4.60;;;2.43;;
1258;SDS011;619;51.472;6.628;2023-05-16T00:40:46;3.17;;;1.97;;
1258;SDS011;619;51.472;6.628;2023-05-16T00:43:16;7.30;;;2.70;;
1258;SDS011;619;51.472;6.628;2023-05-16T00:45:42;8.30;;;2.40;;
1258;SDS011;619;51.472;6.628;2023-05-16T00:48:12;6.50;;;2.50;;
1258;SDS011;619;51.472;6.628;2023-05-16T00:50:39;9.50;;;3.53;;
1258;SDS011;619;51.472;6.628;2023-05-16T00:53:05;7.50;;;2.83;;
1258;SDS011;619;51.472;6.628;2023-05-16T00:55:33;6.33;;;2.70;;
1258;SDS011;619;51.472;6.628;2023-05-16T00:58:04;8.77;;;3.40;;
1258;SDS011;619;51.472;6.628;2023-05-16T01:00:33;6.20;;;3.30;;
1258;SDS011;619;51.472;6.628;2023-05-16T01:03:04;7.73;;;3.57;;
1258;SDS011;619;51.472;6.628;2023-05-16T01:05:32;8.80;;;4.37;;
1258;SDS011;619;51.472;6.628;2023-05-16T01:07:58;8.40;;;3.37;;
1258;SDS011;619;51.472;6.628;2023-05-16T01:10:23;7.57;;;2.87;;
1258;SDS011;619;51.472;6.628;2023-05-16T01:13:00;11.00;;;3.43;;
1258;SDS011;619;51.472;6.628;2023-05-16T01:15:43;7.03;;;3.53;;
1258;SDS011;619;51.472;6.628;2023-05-16T01:21:04;7.07;;;3.10;;
1258;SDS011;619;51.472;6.628;2023-05-16T01:26:32;12.13;;;2.87;;
1258;SDS011;619;51.472;6.628;2023-05-16T01:28:59;6.77;;;3.13;;
1258;SDS011;619;51.472;6.628;2023-05-16T01:31:31;8.00;;;2.93;;
1258;SDS011;619;51.472;6.628;2023-05-16T01:33:57;10.57;;;3.60;;
1258;SDS011;619;51.472;6.628;2023-05-16T01:41:18;10.00;;;3.50;;
1258;SDS011;619;51.472;6.628;2023-05-16T01:43:51;4.53;;;3.20;;
1258;SDS011;619;51.472;6.628;2023-05-16T01:46:25;7.70;;;3.27;;
1258;SDS011;619;51.472;6.628;2023-05-16T01:51:41;10.37;;;3.70;;
1258;SDS011;619;51.472;6.628;2023-05-16T01:54:11;19.50;;;4.37;;
1258;SDS011;619;51.472;6.628;2023-05-16T01:56:37;16.37;;;3.47;;
1258;SDS011;619;51.472;6.628;2023-05-16T01:59:05;12.43;;;3.00;;
1258;SDS011;619;51.472;6.628;2023-05-16T02:01:32;8.33;;;3.57;;
1258;SDS011;619;51.472;6.628;2023-05-16T02:03:58;8.00;;;3.03;;
1258;SDS011;619;51.472;6.628;2023-05-16T02:06:24;11.13;;;4.13;;
1258;SDS011;619;51.472;6.628;2023-05-16T02:08:50;10.57;;;3.90;;
1258;SDS011;619;51.472;6.628;2023-05-16T02:11:16;7.67;;;3.07;;
1258;SDS011;619;51.472;6.628;2023-05-16T02:13:42;10.03;;;3.90;;
1258;SDS011;619;51.472;6.628;2023-05-16T02:16:09;9.80;;;3.47;;
1258;SDS011;619;51.472;6.628;2023-05-16T02:18:37;10.20;;;3.57;;
1258;SDS011;619;51.472;6.628;2023-05-16T02:21:03;10.80;;;3.30;;
1258;SDS011;619;51.472;6.628;2023-05-16T02:23:29;12.83;;;3.97;;
1258;SDS011;619;51.472;6.628;2023-05-16T02:25:54;10.70;;;3.07;;
1258;SDS011;619;51.472;6.628;2023-05-16T02:28:20;13.37;;;4.80;;
1258;SDS011;619;51.472;6.628;2023-05-16T02:30:57;16.03;;;3.83;;
1258;SDS011;619;51.472;6.628;2023-05-16T02:33:24;8.53;;;3.43;;
1258;SDS011;619;51.472;6.628;2023-05-16T02:35:51;10.77;;;2.97;;
1258;SDS011;619;51.472;6.628;2023-05-16T02:38:19;9.07;;;3.30;;
1258;SDS011;619;51.472;6.628;2023-05-16T02:40:46;7.40;;;3.17;;
1258;SDS011;619;51.472;6.628;2023-05-16T02:43:12;16.17;;;3.60;;
1258;SDS011;619;51.472;6.628;2023-05-16T02:45:40;13.23;;;3.43;;
1258;SDS011;619;51.472;6.628;2023-05-16T02:48:06;7.10;;;3.00;;
1258;SDS011;619;51.472;6.628;2023-05-16T02:50:32;13.60;;;3.70;;
1258;SDS011;619;51.472;6.628;2023-05-16T02:52:58;11.03;;;3.77;;
1258;SDS011;619;51.472;6.628;2023-05-16T02:55:26;12.23;;;3.17;;
1258;SDS011;619;51.472;6.628;2023-05-16T02:57:54;10.80;;;3.20;;
1258;SDS011;619;51.472;6.628;2023-05-16T03:00:20;12.40;;;4.10;;
1258;SDS011;619;51.472;6.628;2023-05-16T03:02:46;10.70;;;4.33;;
1258;SDS011;619;51.472;6.628;2023-05-16T03:05:16;14.60;;;3.93;;
1258;SDS011;619;51.472;6.628;2023-05-16T03:07:43;13.40;;;3.50;;
1258;SDS011;619;51.472;6.628;2023-05-16T03:10:09;13.10;;;2.90;;
1258;SDS011;619;51.472;6.628;2023-05-16T03:12:35;11.60;;;3.40;;
1258;SDS011;619;51.472;6.628;2023-05-16T03:15:00;11.60;;;3.00;;
1258;SDS011;619;51.472;6.628;2023-05-16T03:17:28;12.83;;;3.10;;
1258;SDS011;619;51.472;6.628;2023-05-16T03:19:54;10.40;;;3.37;;
1258;SDS011;619;51.472;6.628;2023-05-16T03:22:24;13.40;;;3.43;;
1258;SDS011;619;51.472;6.628;2023-05-16T03:24:50;11.07;;;2.70;;
1258;SDS011;619;51.472;6.628;2023-05-16T03:27:18;14.20;;;3.67;;
1258;SDS011;619;51.472;6.628;2023-05-16T03:29:43;9.63;;;3.83;;
1258;SDS011;619;51.472;6.628;2023-05-16T03:32:09;7.23;;;3.23;;
1258;SDS011;619;51.472;6.628;2023-05-16T03:34:38;10.03;;;3.87;;
1258;SDS011;619;51.472;6.628;2023-05-16T03:37:06;13.47;;;3.17;;
1258;SDS011;619;51.472;6.628;2023-05-16T03:39:32;12.73;;;3.37;;
1258;SDS011;619;51.472;6.628;2023-05-16T03:42:00;14.17;;;3.47;;
1258;SDS011;619;51.472;6.628;2023-05-16T03:44:26;11.30;;;3.10;;
1258;SDS011;619;51.472;6.628;2023-05-16T03:46:51;9.47;;;3.67;;
1258;SDS011;619;51.472;6.628;2023-05-16T03:49:18;12.33;;;4.07;;
1258;SDS011;619;51.472;6.628;2023-05-16T03:51:45;11.57;;;3.27;;
1258;SDS011;619;51.472;6.628;2023-05-16T03:54:12;8.77;;;2.73;;
1258;SDS011;619;51.472;6.628;2023-05-16T03:56:41;13.37;;;3.57;;
1258;SDS011;619;51.472;6.628;2023-05-16T03:59:09;8.47;;;3.40;;
1258;SDS011;619;51.472;6.628;2023-05-16T04:01:39;10.10;;;3.30;;
1258;SDS011;619;51.472;6.628;2023-05-16T04:04:05;19.90;;;4.20;;
1258;SDS011;619;51.472;6.628;2023-05-16T04:06:33;10.33;;;3.23;;
1258;SDS011;619;51.472;6.628;2023-05-16T04:08:59;9.30;;;3.10;;
1258;SDS011;619;51.472;6.628;2023-05-16T04:11:25;15.23;;;3.63;;
1258;SDS011;619;51.472;6.628;2023-05-16T04:13:50;10.30;;;3.33;;
1258;SDS011;619;51.472;6.628;2023-05-16T04:16:18;9.90;;;2.93;;
1258;SDS011;619;51.472;6.628;2023-05-16T04:18:44;9.33;;;2.87;;
1258;SDS011;619;51.472;6.628;2023-05-16T04:21:10;12.13;;;3.67;;
1258;SDS011;619;51.472;6.628;2023-05-16T04:23:39;11.40;;;3.40;;
1258;SDS011;619;51.472;6.628;2023-05-16T04:26:07;9.97;;;3.33;;
1258;SDS011;619;51.472;6.628;2023-05-16T04:28:35;9.87;;;3.23;;
1258;SDS011;619;51.472;6.628;2023-05-16T04:31:03;16.93;;;3.33;;
1258;SDS011;619;51.472;6.628;2023-05-16T04:33:28;9.83;;;3.30;;
1258;SDS011;619;51.472;6.628;2023-05-16T04:35:59;11.33;;;2.90;;
1258;SDS011;619;51.472;6.628;2023-05-16T04:38:27;11.70;;;2.97;;
1258;SDS011;619;51.472;6.628;2023-05-16T04:40:56;10.00;;;2.73;;
1258;SDS011;619;51.472;6.628;2023-05-16T04:43:21;8.30;;;3.20;;
1258;SDS011;619;51.472;6.628;2023-05-16T04:45:49;10.03;;;3.20;;
1258;SDS011;619;51.472;6.628;2023-05-16T04:48:15;11.10;;;3.00;;
1258;SDS011;619;51.472;6.628;2023-05-16T04:50:45;12.90;;;2.73;;
1258;SDS011;619;51.472;6.628;2023-05-16T04:53:11;18.50;;;3.00;;
1258;SDS011;619;51.472;6.628;2023-05-16T04:55:38;14.70;;;2.97;;
1258;SDS011;619;51.472;6.628;2023-05-16T04:58:04;7.37;;;2.80;;
1258;SDS011;619;51.472;6.628;2023-05-16T05:00:32;8.80;;;2.30;;
1258;SDS011;619;51.472;6.628;2023-05-16T05:02:58;15.00;;;3.10;;
1258;SDS011;619;51.472;6.628;2023-05-16T05:05:24;13.70;;;4.13;;
1258;SDS011;619;51.472;6.628;2023-05-16T05:07:52;14.80;;;3.40;;
1258;SDS011;619;51.472;6.628;2023-05-16T05:10:20;9.63;;;3.00;;
1258;SDS011;619;51.472;6.628;2023-05-16T05:12:45;9.03;;;3.03;;
1258;SDS011;619;51.472;6.628;2023-05-16T05:15:11;13.30;;;3.90;;
1258;SDS011;619;51.472;6.628;2023-05-16T05:17:37;12.70;;;3.00;;
1258;SDS011;619;51.472;6.628;2023-05-16T05:20:05;9.37;;;2.70;;
1258;SDS011;619;51.472;6.628;2023-05-16T05:22:34;8.83;;;2.73;;
1258;SDS011;619;51.472;6.628;2023-05-16T05:25:00;8.73;;;2.37;;
1258;SDS011;619;51.472;6.628;2023-05-16T05:27:27;11.27;;;2.80;;
1258;SDS011;619;51.472;6.628;2023-05-16T05:29:55;10.17;;;2.53;;
1258;SDS011;619;51.472;6.628;2023-05-16T05:32:21;10.57;;;3.17;;
1258;SDS011;619;51.472;6.628;2023-05-16T05:34:46;8.77;;;2.47;;
1258;SDS011;619;51.472;6.628;2023-05-16T05:37:17;10.10;;;3.50;;
1258;SDS011;619;51.472;6.628;2023-05-16T05:39:45;7.37;;;2.40;;
1258;SDS011;619;51.472;6.628;2023-05-16T05:42:11;13.77;;;3.10;;
1258;SDS011;619;51.472;6.628;2023-05-16T05:44:37;10.83;;;3.20;;
1258;SDS011;619;51.472;6.628;2023-05-16T05:47:05;10.87;;;3.00;;
1258;SDS011;619;51.472;6.628;2023-05-16T05:49:31;6.77;;;2.30;;
1258;SDS011;619;51.472;6.628;2023-05-16T05:51:59;7.90;;;2.97;;
1258;SDS011;619;51.472;6.628;2023-05-16T05:54:28;14.00;;;3.03;;
1258;SDS011;619;51.472;6.628;2023-05-16T05:56:56;7.70;;;2.70;;
1258;SDS011;619;51.472;6.628;2023-05-16T05:59:22;10.30;;;3.70;;
1258;SDS011;619;51.472;6.628;2023-05-16T06:01:48;8.60;;;3.30;;
1258;SDS011;619;51.472;6.628;2023-05-16T06:04:16;7.70;;;2.20;;
1258;SDS011;619;51.472;6.628;2023-05-16T06:06:45;11.20;;;2.57;;
1258;SDS011;619;51.472;6.628;2023-05-16T06:09:13;12.20;;;2.90;;
1258;SDS011;619;51.472;6.628;2023-05-16T06:11:39;8.30;;;2.43;;
1258;SDS011;619;51.472;6.628;2023-05-16T06:14:09;8.63;;;2.93;;
1258;SDS011;619;51.472;6.628;2023-05-16T06:16:37;8.50;;;3.37;;
1258;SDS011;619;51.472;6.628;2023-05-16T06:19:04;10.73;;;3.60;;
1258;SDS011;619;51.472;6.628;2023-05-16T06:21:32;4.60;;;2.50;;
1258;SDS011;619;51.472;6.628;2023-05-16T06:24:00;9.80;;;2.47;;
1258;SDS011;619;51.472;6.628;2023-05-16T06:26:26;11.93;;;3.63;;
1258;SDS011;619;51.472;6.628;2023-05-16T06:28:51;5.03;;;2.33;;
1258;SDS011;619;51.472;6.628;2023-05-16T06:31:22;9.20;;;2.30;;
1258;SDS011;619;51.472;6.628;2023-05-16T06:33:47;8.70;;;2.23;;
1258;SDS011;619;51.472;6.628;2023-05-16T06:36:15;8.53;;;2.50;;
1258;SDS011;619;51.472;6.628;2023-05-16T06:38:43;14.00;;;2.93;;
1258;SDS011;619;51.472;6.628;2023-05-16T06:41:09;11.33;;;2.77;;
1258;SDS011;619;51.472;6.628;2023-05-16T06:43:34;7.67;;;2.47;;
1258;SDS011;619;51.472;6.628;2023-05-16T06:46:00;10.83;;;2.90;;
1258;SDS011;619;51.472;6.628;2023-05-16T06:48:25;6.70;;;2.57;;
1258;SDS011;619;51.472;6.628;2023-05-16T06:50:56;10.97;;;2.83;;
1258;SDS011;619;51.472;6.628;2023-05-16T06:53:24;7.90;;;2.40;;
1258;SDS011;619;51.472;6.628;2023-05-16T06:55:50;6.30;;;2.40;;
1258;SDS011;619;51.472;6.628;2023-05-16T06:58:18;5.87;;;1.70;;
1258;SDS011;619;51.472;6.628;2023-05-16T07:00:43;9.57;;;2.40;;
1258;SDS011;619;51.472;6.628;2023-05-16T07:03:09;13.67;;;2.50;;
1258;SDS011;619;51.472;6.628;2023-05-16T07:05:35;7.37;;;3.43;;
1258;SDS011;619;51.472;6.628;2023-05-16T07:08:02;6.73;;;2.00;;
1258;SDS011;619;51.472;6.628;2023-05-16T07:10:31;19.63;;;3.50;;
1258;SDS011;619;51.472;6.628;2023-05-16T07:12:59;7.13;;;2.70;;
1258;SDS011;619;51.472;6.628;2023-05-16T07:15:27;6.67;;;2.57;;
1258;SDS011;619;51.472;6.628;2023-05-16T07:17:55;6.23;;;2.07;;
1258;SDS011;619;51.472;6.628;2023-05-16T07:20:23;11.30;;;2.10;;
1258;SDS011;619;51.472;6.628;2023-05-16T07:22:51;6.20;;;2.30;;
1258;SDS011;619;51.472;6.628;2023-05-16T07:25:17;8.20;;;2.27;;
1258;SDS011;619;51.472;6.628;2023-05-16T07:27:43;10.23;;;2.00;;
1258;SDS011;619;51.472;6.628;2023-05-16T07:30:11;11.07;;;2.20;;
1258;SDS011;619;51.472;6.628;2023-05-16T07:32:40;5.90;;;1.60;;
1258;SDS011;619;51.472;6.628;2023-05-16T07:35:08;6.87;;;2.00;;
1258;SDS011;619;51.472;6.628;2023-05-16T07:37:34;4.43;;;1.43;;
1258;SDS011;619;51.472;6.628;2023-05-16T07:40:05;13.10;;;3.10;;
1258;SDS011;619;51.472;6.628;2023-05-16T07:42:32;9.60;;;2.07;;
1258;SDS011;619;51.472;6.628;2023-05-16T07:45:00;7.57;;;2.03;;
1258;SDS011;619;51.472;6.628;2023-05-16T07:47:26;6.63;;;2.07;;
1258;SDS011;619;51.472;6.628;2023-05-16T07:49:51;4.20;;;1.60;;
1258;SDS011;619;51.472;6.628;2023-05-16T07:52:17;5.93;;;1.97;;
1258;SDS011;619;51.472;6.628;2023-05-16T07:54:44;5.70;;;1.73;;
1258;SDS011;619;51.472;6.628;2023-05-16T07:57:10;6.87;;;1.40;;
1258;SDS011;619;51.472;6.628;2023-05-16T07:59:37;6.77;;;2.13;;
1258;SDS011;619;51.472;6.628;2023-05-16T08:02:03;6.83;;;2.03;;
1258;SDS011;619;51.472;6.628;2023-05-16T08:04:29;4.53;;;1.50;;
1258;SDS011;619;51.472;6.628;2023-05-16T08:06:56;6.60;;;1.60;;
1258;SDS011;619;51.472;6.628;2023-05-16T08:09:22;6.90;;;1.83;;
1258;SDS011;619;51.472;6.628;2023-05-16T08:11:48;6.00;;;1.90;;
1258;SDS011;619;51.472;6.628;2023-05-16T08:14:13;4.73;;;1.97;;
1258;SDS011;619;51.472;6.628;2023-05-16T08:16:39;9.33;;;2.43;;
1258;SDS011;619;51.472;6.628;2023-05-16T08:19:07;4.03;;;1.53;;
1258;SDS011;619;51.472;6.628;2023-05-16T08:21:33;3.90;;;1.57;;
1258;SDS011;619;51.472;6.628;2023-05-16T08:23:58;5.97;;;1.53;;
1258;SDS011;619;51.472;6.628;2023-05-16T08:26:24;9.67;;;2.20;;
1258;SDS011;619;51.472;6.628;2023-05-16T08:28:52;5.23;;;1.63;;
1258;SDS011;619;51.472;6.628;2023-05-16T08:31:17;3.50;;;1.90;;
1258;SDS011;619;51.472;6.628;2023-05-16T08:33:50;9.67;;;2.77;;
1258;SDS011;619;51.472;6.628;2023-05-16T08:36:15;27.07;;;5.27;;
1258;SDS011;619;51.472;6.628;2023-05-16T08:38:44;12.87;;;2.70;;
1258;SDS011;619;51.472;6.628;2023-05-16T08:41:13;14.63;;;3.60;;
1258;SDS011;619;51.472;6.628;2023-05-16T08:43:38;16.03;;;3.00;;
1258;SDS011;619;51.472;6.628;2023-05-16T08:46:05;21.27;;;3.67;;
1258;SDS011;619;51.472;6.628;2023-05-16T08:48:35;7.00;;;2.67;;
1258;SDS011;619;51.472;6.628;2023-05-16T08:51:02;9.30;;;2.73;;
1258;SDS011;619;51.472;6.628;2023-05-16T08:53:36;8.47;;;2.53;;
1258;SDS011;619;51.472;6.628;2023-05-16T08:56:12;5.60;;;1.90;;
1258;SDS011;619;51.472;6.628;2023-05-16T08:58:40;27.60;;;6.33;;
1258;SDS011;619;51.472;6.628;2023-05-16T09:01:06;4.23;;;1.97;;
1258;SDS011;619;51.472;6.628;2023-05-16T09:03:37;8.50;;;2.23;;
1258;SDS011;619;51.472;6.628;2023-05-16T09:06:03;4.30;;;1.80;;
1258;SDS011;619;51.472;6.628;2023-05-16T09:08:30;6.00;;;1.53;;
1258;SDS011;619;51.472;6.628;2023-05-16T09:10:56;5.23;;;1.90;;
1258;SDS011;619;51.472;6.628;2023-05-16T09:13:22;4.37;;;1.40;;
1258;SDS011;619;51.472;6.628;2023-05-16T09:16:09;10.33;;;1.80;;
1258;SDS011;619;51.472;6.628;2023-05-16T09:18:42;4.90;;;1.30;;
1258;SDS011;619;51.472;6.628;2023-05-16T09:21:21;7.87;;;2.20;;
1258;SDS011;619;51.472;6.628;2023-05-16T09:23:51;20.30;;;4.77;;
1258;SDS011;619;51.472;6.628;2023-05-16T09:26:17;7.90;;;2.00;;
1258;SDS011;619;51.472;6.628;2023-05-16T09:28:43;4.77;;;1.60;;
1258;SDS011;619;51.472;6.628;2023-05-16T09:33:46;7.00;;;2.10;;
1258;SDS011;619;51.472;6.628;2023-05-16T09:36:14;6.80;;;1.93;;
1258;SDS011;619;51.472;6.628;2023-05-16T09:38:42;5.13;;;1.97;;
1258;SDS011;619;51.472;6.628;2023-05-16T09:41:10;9.40;;;1.73;;
1258;SDS011;619;51.472;6.628;2023-05-16T09:43:40;4.47;;;1.80;;
1258;SDS011;619;51.472;6.628;2023-05-16T09:46:07;6.10;;;2.53;;
1258;SDS011;619;51.472;6.628;2023-05-16T09:48:36;7.43;;;1.80;;
1258;SDS011;619;51.472;6.628;2023-05-16T09:51:15;12.13;;;2.77;;
1258;SDS011;619;51.472;6.628;2023-05-16T09:53:48;4.37;;;1.77;;
1258;SDS011;619;51.472;6.628;2023-05-16T09:56:14;6.13;;;2.40;;
1258;SDS011;619;51.472;6.628;2023-05-16T09:58:41;4.30;;;1.73;;
1258;SDS011;619;51.472;6.628;2023-05-16T10:01:11;7.23;;;1.50;;
1258;SDS011;619;51.472;6.628;2023-05-16T10:03:38;6.97;;;2.60;;
1258;SDS011;619;51.472;6.628;2023-05-16T10:06:05;7.27;;;2.10;;
1258;SDS011;619;51.472;6.628;2023-05-16T10:08:35;7.53;;;1.80;;
1258;SDS011;619;51.472;6.628;2023-05-16T10:11:02;5.13;;;1.90;;
1258;SDS011;619;51.472;6.628;2023-05-16T10:13:29;8.00;;;2.07;;
1258;SDS011;619;51.472;6.628;2023-05-16T10:15:57;2.40;;;1.27;;
1258;SDS011;619;51.472;6.628;2023-05-16T10:18:28;5.27;;;1.87;;
1258;SDS011;619;51.472;6.628;2023-05-16T10:20:55;5.33;;;1.73;;
1258;SDS011;619;51.472;6.628;2023-05-16T10:23:24;3.97;;;1.17;;
1258;SDS011;619;51.472;6.628;2023-05-16T10:25:50;4.33;;;1.40;;
1258;SDS011;619;51.472;6.628;2023-05-16T10:28:19;4.50;;;1.90;;
1258;SDS011;619;51.472;6.628;2023-05-16T10:30:48;5.47;;;1.43;;
1258;SDS011;619;51.472;6.628;2023-05-16T10:33:15;5.13;;;1.67;;
1258;SDS011;619;51.472;6.628;2023-05-16T10:35:47;3.77;;;1.43;;
1258;SDS011;619;51.472;6.628;2023-05-16T10:38:16;3.50;;;1.47;;
1258;SDS011;619;51.472;6.628;2023-05-16T10:40:43;3.50;;;1.37;;
1258;SDS011;619;51.472;6.628;2023-05-16T10:43:10;3.07;;;1.07;;
1258;SDS011;619;51.472;6.628;2023-05-16T10:45:53;2.97;;;1.27;;
1258;SDS011;619;51.472;6.628;2023-05-16T10:48:30;4.40;;;1.30;;
1258;SDS011;619;51.472;6.628;2023-05-16T10:50:59;6.00;;;1.30;;
1258;SDS011;619;51.472;6.628;2023-05-16T11:14:28;2.03;;;0.93;;
1258;SDS011;619;51.472;6.628;2023-05-16T11:19:39;3.63;;;0.80;;
1258;SDS011;619;51.472;6.628;2023-05-16T11:22:10;6.17;;;1.07;;
1258;SDS011;619;51.472;6.628;2023-05-16T11:32:34;3.90;;;0.93;;
1258;SDS011;619;51.472;6.628;2023-05-16T11:35:04;3.50;;;1.10;;
1258;SDS011;619;51.472;6.628;2023-05-16T11:37:34;15.50;;;2.70;;
1258;SDS011;619;51.472;6.628;2023-05-16T11:40:06;5.67;;;1.40;;
1258;SDS011;619;51.472;6.628;2023-05-16T11:42:36;4.70;;;1.43;;
1258;SDS011;619;51.472;6.628;2023-05-16T11:45:10;2.60;;;1.10;;
1258;SDS011;619;51.472;6.628;2023-05-16T11:47:39;2.90;;;1.57;;
1258;SDS011;619;51.472;6.628;2023-05-16T11:50:05;3.73;;;1.17;;
1258;SDS011;619;51.472;6.628;2023-05-16T11:52:34;2.57;;;0.90;;
1258;SDS011;619;51.472;6.628;2023-05-16T11:54:59;1.40;;;0.80;;
1258;SDS011;619;51.472;6.628;2023-05-16T11:57:26;4.80;;;1.33;;
1258;SDS011;619;51.472;6.628;2023-05-16T11:59:52;3.63;;;1.00;;
1258;SDS011;619;51.472;6.628;2023-05-16T12:02:20;2.00;;;0.93;;
1258;SDS011;619;51.472;6.628;2023-05-16T12:04:46;1.40;;;1.00;;
1258;SDS011;619;51.472;6.628;2023-05-16T12:07:14;2.80;;;1.10;;
1258;SDS011;619;51.472;6.628;2023-05-16T12:09:40;1.97;;;0.80;;
1258;SDS011;619;51.472;6.628;2023-05-16T12:12:07;2.67;;;0.80;;
1258;SDS011;619;51.472;6.628;2023-05-16T12:14:36;3.03;;;1.13;;
1258;SDS011;619;51.472;6.628;2023-05-16T12:17:02;2.50;;;1.00;;
1258;SDS011;619;51.472;6.628;2023-05-16T12:19:28;1.50;;;0.87;;
1258;SDS011;619;51.472;6.628;2023-05-16T12:21:54;4.53;;;1.50;;
1258;SDS011;619;51.472;6.628;2023-05-16T12:24:19;3.70;;;1.20;;
1258;SDS011;619;51.472;6.628;2023-05-16T12:26:46;1.83;;;1.00;;
1258;SDS011;619;51.472;6.628;2023-05-16T12:29:14;5.47;;;1.30;;
1258;SDS011;619;51.472;6.628;2023-05-16T12:31:45;2.80;;;1.20;;
1258;SDS011;619;51.472;6.628;2023-05-16T12:34:16;2.23;;;0.90;;
1258;SDS011;619;51.472;6.628;2023-05-16T12:36:44;3.43;;;1.23;;
1258;SDS011;619;51.472;6.628;2023-05-16T12:39:16;5.70;;;1.60;;
1258;SDS011;619;51.472;6.628;2023-05-16T12:41:47;5.47;;;1.33;;
1258;SDS011;619;51.472;6.628;2023-05-16T12:44:17;1.93;;;0.90;;
1258;SDS011;619;51.472;6.628;2023-05-16T12:46:50;6.30;;;1.87;;
1258;SDS011;619;51.472;6.628;2023-05-16T12:49:22;6.00;;;1.17;;
1258;SDS011;619;51.472;6.628;2023-05-16T12:51:51;10.87;;;1.97;;
1258;SDS011;619;51.472;6.628;2023-05-16T12:54:22;4.63;;;1.10;;
1258;SDS011;619;51.472;6.628;2023-05-16T12:56:48;2.20;;;0.83;;
1258;SDS011;619;51.472;6.628;2023-05-16T12:59:13;3.07;;;0.97;;
1258;SDS011;619;51.472;6.628;2023-05-16T13:01:42;3.97;;;1.00;;
1258;SDS011;619;51.472;6.628;2023-05-16T13:04:09;3.90;;;1.37;;
1258;SDS011;619;51.472;6.628;2023-05-16T13:06:42;2.73;;;1.50;;
1258;SDS011;619;51.472;6.628;2023-05-16T13:09:08;9.90;;;2.13;;
1258;SDS011;619;51.472;6.628;2023-05-16T13:11:35;12.67;;;2.90;;
1258;SDS011;619;51.472;6.628;2023-05-16T13:14:00;10.13;;;2.43;;
1258;SDS011;619;51.472;6.628;2023-05-16T13:16:26;3.97;;;1.70;;
1258;SDS011;619;51.472;6.628;2023-05-16T13:18:54;5.90;;;1.67;;
1258;SDS011;619;51.472;6.628;2023-05-16T13:21:19;4.57;;;1.70;;
1258;SDS011;619;51.472;6.628;2023-05-16T13:23:47;6.37;;;1.87;;
1258;SDS011;619;51.472;6.628;2023-05-16T13:26:15;5.93;;;1.37;;
1258;SDS011;619;51.472;6.628;2023-05-16T13:28:43;4.03;;;1.37;;
1258;SDS011;619;51.472;6.628;2023-05-16T13:31:09;3.20;;;1.33;;
1258;SDS011;619;51.472;6.628;2023-05-16T13:33:34;7.13;;;2.07;;
1258;SDS011;619;51.472;6.628;2023-05-16T13:36:01;6.03;;;1.83;;
1258;SDS011;619;51.472;6.628;2023-05-16T13:38:27;4.43;;;1.67;;
1258;SDS011;619;51.472;6.628;2023-05-16T13:40:56;7.70;;;2.40;;
1258;SDS011;619;51.472;6.628;2023-05-16T13:45:49;3.47;;;1.77;;
1258;SDS011;619;51.472;6.628;2023-05-16T13:48:17;5.40;;;1.70;;
1258;SDS011;619;51.472;6.628;2023-05-16T13:50:45;3.80;;;1.70;;
1258;SDS011;619;51.472;6.628;2023-05-16T13:53:14;3.67;;;1.60;;
1258;SDS011;619;51.472;6.628;2023-05-16T13:55:39;2.60;;;1.40;;
1258;SDS011;619;51.472;6.628;2023-05-16T13:58:05;3.20;;;1.90;;
1258;SDS011;619;51.472;6.628;2023-05-16T14:00:31;3.73;;;1.73;;
1258;SDS011;619;51.472;6.628;2023-05-16T14:02:56;2.47;;;1.50;;
1258;SDS011;619;51.472;6.628;2023-05-16T14:05:24;3.83;;;1.63;;
1258;SDS011;619;51.472;6.628;2023-05-16T14:07:53;4.23;;;2.00;;
1258;SDS011;619;51.472;6.628;2023-05-16T14:10:20;3.80;;;1.60;;
1258;SDS011;619;51.472;6.628;2023-05-16T14:12:51;3.03;;;1.43;;
1258;SDS011;619;51.472;6.628;2023-05-16T14:15:17;3.10;;;1.80;;
1258;SDS011;619;51.472;6.628;2023-05-16T14:17:42;5.10;;;2.10;;
1258;SDS011;619;51.472;6.628;2023-05-16T14:20:08;2.80;;;1.73;;
1258;SDS011;619;51.472;6.628;2023-05-16T14:22:36;4.60;;;2.20;;
1258;SDS011;619;51.472;6.628;2023-05-16T14:25:04;3.07;;;1.80;;
1258;SDS011;619;51.472;6.628;2023-05-16T14:27:31;3.80;;;2.40;;
1258;SDS011;619;51.472;6.628;2023-05-16T14:29:56;3.17;;;2.00;;
1258;SDS011;619;51.472;6.628;2023-05-16T14:32:22;3.97;;;2.30;;
1258;SDS011;619;51.472;6.628;2023-05-16T14:34:48;2.80;;;1.90;;
1258;SDS011;619;51.472;6.628;2023-05-16T14:37:14;3.50;;;1.73;;
1258;SDS011;619;51.472;6.628;2023-05-16T14:39:43;5.43;;;2.20;;
1258;SDS011;619;51.472;6.628;2023-05-16T14:42:10;4.13;;;1.97;;
1258;SDS011;619;51.472;6.628;2023-05-16T14:44:36;3.30;;;1.73;;
1258;SDS011;619;51.472;6.628;2023-05-16T14:47:04;3.37;;;2.10;;
1258;SDS011;619;51.472;6.628;2023-05-16T14:49:30;4.33;;;1.83;;
1258;SDS011;619;51.472;6.628;2023-05-16T14:51:56;4.13;;;1.43;;
1258;SDS011;619;51.472;6.628;2023-05-16T14:54:24;5.87;;;1.87;;
1258;SDS011;619;51.472;6.628;2023-05-16T14:56:49;4.73;;;2.47;;
1258;SDS011;619;51.472;6.628;2023-05-16T14:59:15;3.40;;;1.57;;
1258;SDS011;619;51.472;6.628;2023-05-16T15:01:41;4.77;;;1.80;;
1258;SDS011;619;51.472;6.628;2023-05-16T15:04:06;3.67;;;2.07;;
1258;SDS011;619;51.472;6.628;2023-05-16T15:06:32;4.00;;;1.67;;
1258;SDS011;619;51.472;6.628;2023-05-16T15:09:02;5.10;;;1.73;;
1258;SDS011;619;51.472;6.628;2023-05-16T15:11:28;4.70;;;2.17;;
1258;SDS011;619;51.472;6.628;2023-05-16T15:13:55;4.40;;;1.70;;
1258;SDS011;619;51.472;6.628;2023-05-16T15:16:24;4.50;;;1.93;;
1258;SDS011;619;51.472;6.628;2023-05-16T15:18:52;5.63;;;1.57;;
1258;SDS011;619;51.472;6.628;2023-05-16T15:21:18;5.13;;;1.37;;
1258;SDS011;619;51.472;6.628;2023-05-16T15:23:43;3.23;;;1.23;;
1258;SDS011;619;51.472;6.628;2023-05-16T15:26:09;4.13;;;1.70;;
1258;SDS011;619;51.472;6.628;2023-05-16T15:28:37;4.17;;;1.50;;
1258;SDS011;619;51.472;6.628;2023-05-16T15:31:03;6.97;;;1.77;;
1258;SDS011;619;51.472;6.628;2023-05-16T15:33:31;4.83;;;2.00;;
1258;SDS011;619;51.472;6.628;2023-05-16T15:36:02;2.80;;;1.70;;
1258;SDS011;619;51.472;6.628;2023-05-16T15:38:28;7.00;;;2.37;;
1258;SDS011;619;51.472;6.628;2023-05-16T15:40:53;6.03;;;1.57;;
1258;SDS011;619;51.472;6.628;2023-05-16T15:43:19;2.43;;;1.60;;
1258;SDS011;619;51.472;6.628;2023-05-16T15:45:45;5.57;;;1.87;;
1258;SDS011;619;51.472;6.628;2023-05-16T15:48:11;3.73;;;1.77;;
1258;SDS011;619;51.472;6.628;2023-05-16T15:50:36;3.10;;;2.10;;
1258;SDS011;619;51.472;6.628;2023-05-16T15:53:04;3.40;;;1.97;;
1258;SDS011;619;51.472;6.628;2023-05-16T15:55:30;4.83;;;2.40;;
1258;SDS011;619;51.472;6.628;2023-05-16T15:57:58;4.47;;;2.00;;
1258;SDS011;619;51.472;6.628;2023-05-16T16:00:26;8.03;;;2.10;;
1258;SDS011;619;51.472;6.628;2023-05-16T16:02:52;6.73;;;2.70;;
1258;SDS011;619;51.472;6.628;2023-05-16T16:05:20;8.70;;;2.50;;
1258;SDS011;619;51.472;6.628;2023-05-16T16:07:48;5.90;;;2.27;;
1258;SDS011;619;51.472;6.628;2023-05-16T16:10:13;8.00;;;2.43;;
1258;SDS011;619;51.472;6.628;2023-05-16T16:12:41;4.63;;;2.50;;
1258;SDS011;619;51.472;6.628;2023-05-16T16:15:09;3.50;;;1.87;;
1258;SDS011;619;51.472;6.628;2023-05-16T16:17:37;3.53;;;2.00;;
1258;SDS011;619;51.472;6.628;2023-05-16T16:20:02;4.53;;;2.67;;